aviador You're here:

LFMV Decoded Metar

AVIGNON in FRANCE
Report Time2018-01-19 05:00:00
UTC Time2018-01-19 05:29:44
Flight Rules vfr VFR
WindCalm
Visibility9000 m
Phenomena:N/A
Clouds:N/A
Expected CloudBase > 400 ft AGL from Temp-Dew spread
CeilingNone
Temp02°C (ISA -13)
Dew Point01°C (93% RH)
AAT0.2°C
QNH1015 hPa
Density Alt-1,404 ft
Elevation125 ft
Report Wrong Elevation
Raw Report
LFMV 190500Z AUTO 00000KT 9000 NSC 02/01 Q1015 TEMPO 1500 BCFG=

Extra information for LFMV:More info

Metar Taf Metar & Taf Last 4 Metars F.Rules Stats Wind Profile Meteogram Temp Stats Airport Information Weather charts Add Link Nearby VenuesMetar ALERT Operation Metar Decoded Social comments